createdAt,value
2017-09-19T03:30:15.795Z,3.42
2017-09-19T03:32:43.374Z,4.12
2017-09-19T03:35:10.946Z,3.62
2017-09-19T03:37:38.565Z,4.22
2017-09-19T03:40:06.581Z,4.30
2017-09-19T03:42:34.153Z,4.47
2017-09-19T03:45:02.542Z,3.08
2017-09-19T03:47:30.117Z,2.17
2017-09-19T03:49:57.690Z,1.92
2017-09-19T03:52:25.313Z,3.87
2017-09-19T03:54:53.653Z,3.70
2017-09-19T03:57:21.225Z,4.15
2017-09-19T03:59:48.835Z,4.50
2017-09-19T04:02:16.405Z,4.30
2017-09-19T04:04:43.985Z,3.15
2017-09-19T04:07:11.773Z,3.37
2017-09-19T04:09:40.117Z,3.30
2017-09-19T04:12:07.690Z,3.50
2017-09-19T04:14:35.285Z,3.17
2017-09-19T04:17:03.621Z,2.95
2017-09-19T04:19:31.410Z,2.75
2017-09-19T04:21:59.752Z,2.92
2017-09-19T04:24:27.321Z,3.10
2017-09-19T04:26:55.105Z,3.15
2017-09-19T04:29:23.449Z,3.20
2017-09-19T04:31:51.046Z,4.00
2017-09-19T04:34:19.522Z,3.25
2017-09-19T04:36:47.860Z,4.10
2017-09-19T04:39:15.453Z,4.97
2017-09-19T04:41:43.842Z,6.12
2017-09-19T04:44:12.178Z,5.55
2017-09-19T04:46:39.769Z,4.75
2017-09-19T04:49:08.147Z,4.55
2017-09-19T04:51:36.485Z,4.28
2017-09-19T04:54:04.181Z,4.30
2017-09-19T04:56:32.562Z,3.35
2017-09-19T04:59:00.913Z,4.78
2017-09-19T05:01:28.509Z,4.82
2017-09-19T05:03:56.873Z,3.50
2017-09-19T05:06:25.220Z,2.85
2017-09-19T05:08:52.813Z,2.30
2017-09-19T05:11:21.153Z,2.22
2017-09-19T05:13:48.747Z,2.70
2017-09-19T05:16:17.214Z,2.50
2017-09-19T05:18:44.790Z,2.42
2017-09-19T05:21:13.125Z,2.75
2017-09-19T05:23:40.817Z,2.33
2017-09-19T05:26:09.153Z,2.67
2017-09-19T05:28:36.781Z,2.42
2017-09-19T05:31:04.353Z,1.95
2017-09-19T05:33:31.926Z,4.28
2017-09-19T05:35:59.649Z,2.92
2017-09-19T05:38:27.987Z,3.25
2017-09-19T05:40:55.561Z,4.93
2017-09-19T05:43:23.179Z,5.03
2017-09-19T05:45:50.753Z,6.90
2017-09-19T05:48:18.334Z,10.10
2017-09-19T05:50:45.934Z,6.00
2017-09-19T05:53:13.509Z,6.00
2017-09-19T05:55:41.129Z,5.25
2017-09-19T05:58:09.470Z,4.53
2017-09-19T06:00:37.046Z,4.97
2017-09-19T06:03:04.660Z,4.12
2017-09-19T06:05:32.234Z,4.18
2017-09-19T06:07:59.812Z,4.40
2017-09-19T06:10:27.430Z,3.80
2017-09-19T06:12:55.002Z,3.45
2017-09-19T06:15:22.977Z,3.67
2017-09-19T06:17:50.683Z,4.25
2017-09-19T06:20:19.022Z,3.30
2017-09-19T06:22:46.590Z,4.50
2017-09-19T06:25:14.202Z,5.80
2017-09-19T06:27:41.802Z,5.82
2017-09-19T06:30:09.383Z,10.30
2017-09-19T06:32:36.981Z,10.52
2017-09-19T06:35:04.562Z,10.45
2017-09-19T06:37:32.138Z,9.80
2017-09-19T06:39:59.762Z,10.63
2017-09-19T06:42:27.342Z,10.60
2017-09-19T06:44:54.913Z,6.37
2017-09-19T06:47:22.509Z,6.35
2017-09-19T06:49:50.869Z,9.63
2017-09-19T06:52:18.469Z,8.35
2017-09-19T06:54:46.041Z,6.82
2017-09-19T06:57:13.862Z,8.52
2017-09-19T06:59:42.202Z,7.22
2017-09-19T07:02:09.773Z,8.35
2017-09-19T07:04:37.398Z,7.45
2017-09-19T07:07:04.973Z,8.18
2017-09-19T07:09:32.550Z,8.60
2017-09-19T07:12:00.173Z,7.75
2017-09-19T07:14:27.753Z,8.05
2017-09-19T07:16:55.333Z,8.18
2017-09-19T07:19:23.217Z,8.35
2017-09-19T07:21:51.554Z,8.00
2017-09-19T07:24:19.165Z,8.30
2017-09-19T07:26:47.525Z,8.13
2017-09-19T07:29:15.894Z,7.85
2017-09-19T07:31:43.470Z,8.13
2017-09-19T07:34:11.847Z,8.70
2017-09-19T07:36:40.193Z,9.07
2017-09-19T07:39:07.773Z,8.18
2017-09-19T07:41:36.162Z,8.63
2017-09-19T07:44:04.568Z,8.70
2017-09-19T07:46:32.157Z,7.30
2017-09-19T07:48:59.757Z,8.75
2017-09-19T07:51:28.125Z,7.80
2017-09-19T07:53:56.502Z,7.90
2017-09-19T07:56:24.853Z,9.25
2017-09-19T07:58:52.498Z,9.23
2017-09-19T08:01:20.097Z,8.35
2017-09-19T08:03:48.449Z,9.05
2017-09-19T08:06:16.442Z,8.90
2017-09-19T08:08:44.786Z,9.70
2017-09-19T08:11:12.489Z,10.57
2017-09-19T08:13:40.865Z,12.40
2017-09-19T08:16:09.208Z,11.57
2017-09-19T08:18:36.838Z,11.93
2017-09-19T08:21:04.425Z,11.02
2017-09-19T08:23:32.009Z,10.68
2017-09-19T08:26:00.401Z,11.35
2017-09-19T08:28:28.770Z,10.90
2017-09-19T08:30:57.140Z,9.68
2017-09-19T08:33:25.489Z,8.23
2017-09-19T08:35:53.074Z,8.90
2017-09-19T08:38:21.445Z,8.43
2017-09-19T08:40:49.168Z,8.45
2017-09-19T08:43:16.753Z,8.18
2017-09-19T08:45:44.353Z,7.62
2017-09-19T08:48:11.937Z,6.75
2017-09-19T08:50:39.541Z,6.32
2017-09-19T08:53:07.209Z,5.12
2017-09-19T08:55:35.554Z,5.10
2017-09-19T08:58:03.253Z,5.05
2017-09-19T09:00:31.606Z,7.40
2017-09-19T09:02:59.962Z,5.90
2017-09-19T09:05:27.581Z,6.20
2017-09-19T09:07:55.161Z,6.87
2017-09-19T09:10:22.786Z,6.62
2017-09-19T09:12:51.241Z,7.37
2017-09-19T09:15:18.821Z,4.85
2017-09-19T09:17:47.169Z,5.50
2017-09-19T09:20:14.853Z,5.32
2017-09-19T09:22:43.234Z,5.12
2017-09-19T09:25:11.609Z,4.75
2017-09-19T09:27:40.197Z,5.55
2017-09-19T09:30:08.574Z,5.30
2017-09-19T09:32:36.949Z,6.20
2017-09-19T09:35:05.321Z,5.53
2017-09-19T09:37:33.670Z,5.35
2017-09-19T09:40:01.249Z,4.53
2017-09-19T09:42:28.857Z,3.90
2017-09-19T09:44:56.435Z,4.72
2017-09-19T09:47:24.297Z,3.55
2017-09-19T09:49:51.881Z,4.72
2017-09-19T09:52:19.461Z,5.00
2017-09-19T09:54:47.855Z,3.37
2017-09-19T09:57:15.433Z,3.55
2017-09-19T09:59:43.022Z,3.60
2017-09-19T10:02:10.635Z,3.20
2017-09-19T10:04:38.218Z,3.12
2017-09-19T10:07:05.854Z,3.22
2017-09-19T10:09:33.438Z,3.20
2017-09-19T10:12:01.032Z,3.10
2017-09-19T10:14:28.649Z,3.17
2017-09-19T10:16:56.230Z,3.33
2017-09-19T10:19:23.810Z,3.08
2017-09-19T10:21:51.445Z,2.50
2017-09-19T10:24:19.017Z,3.03
2017-09-19T10:26:46.657Z,3.12
2017-09-19T10:29:15.136Z,3.40
2017-09-19T10:31:43.558Z,2.80
2017-09-19T10:34:11.597Z,4.30
2017-09-19T10:36:39.974Z,3.23
2017-09-19T10:39:07.549Z,4.00
2017-09-19T10:41:35.169Z,4.20
2017-09-19T10:44:02.757Z,4.60
2017-09-19T10:46:30.345Z,4.03
2017-09-19T10:48:58.739Z,4.20
2017-09-19T10:51:26.331Z,4.50
2017-09-19T10:53:53.918Z,7.70
2017-09-19T10:56:21.521Z,5.00
2017-09-19T10:58:49.106Z,3.70
2017-09-19T11:01:16.706Z,3.97
2017-09-19T11:03:45.147Z,3.80
2017-09-19T11:06:12.773Z,4.40
2017-09-19T11:08:40.353Z,3.80
2017-09-19T11:11:07.929Z,3.20
2017-09-19T11:13:35.542Z,8.17
2017-09-19T11:16:03.122Z,4.37
2017-09-19T11:18:30.698Z,3.83
2017-09-19T11:20:58.536Z,3.43
2017-09-19T11:23:26.114Z,3.10
2017-09-19T11:25:53.694Z,2.50
2017-09-19T11:28:22.061Z,2.60
2017-09-19T11:30:49.641Z,2.30
2017-09-19T11:33:17.257Z,3.20
2017-09-19T11:35:44.838Z,3.30
2017-09-19T11:38:12.418Z,4.30
2017-09-19T11:40:40.306Z,2.20
2017-09-19T11:43:08.661Z,2.70
2017-09-19T11:45:36.249Z,1.77
2017-09-19T11:48:03.889Z,2.22
2017-09-19T11:50:32.237Z,2.03
2017-09-19T11:52:59.814Z,2.93
2017-09-19T11:55:27.451Z,2.20
2017-09-19T11:57:55.032Z,2.60
2017-09-19T12:00:22.617Z,2.37
2017-09-19T12:02:50.990Z,3.25
2017-09-19T12:05:19.337Z,2.53
2017-09-19T12:07:48.445Z,3.10
2017-09-19T12:10:16.022Z,3.17
2017-09-19T12:12:44.711Z,3.07
2017-09-19T12:15:13.054Z,2.37
2017-09-19T12:17:40.630Z,1.80
2017-09-19T12:20:08.233Z,2.27
2017-09-19T12:22:35.817Z,2.37
2017-09-19T12:25:03.472Z,2.10
2017-09-19T12:27:31.101Z,2.10
2017-09-19T12:29:58.697Z,2.30
2017-09-19T12:32:26.277Z,2.00
2017-09-19T12:34:53.881Z,2.70
2017-09-19T12:37:21.719Z,2.50
2017-09-19T12:39:50.088Z,2.40
2017-09-19T12:42:17.669Z,2.50
2017-09-19T12:44:45.329Z,2.70
2017-09-19T12:47:12.909Z,2.77
2017-09-19T12:49:40.490Z,2.57
2017-09-19T12:52:08.095Z,2.30
2017-09-19T12:54:36.449Z,2.10
2017-09-19T12:57:04.037Z,2.10
2017-09-19T12:59:32.397Z,1.77
2017-09-19T13:01:59.973Z,2.40
2017-09-19T13:04:28.359Z,2.57
2017-09-19T13:06:55.950Z,2.00
2017-09-19T13:09:23.532Z,2.00
2017-09-19T13:11:51.257Z,2.30
2017-09-19T13:14:18.842Z,2.20
2017-09-19T13:16:46.423Z,2.03
2017-09-19T13:19:14.021Z,2.47
2017-09-19T13:21:41.598Z,2.03
2017-09-19T13:24:09.422Z,2.50
2017-09-19T13:26:37.770Z,2.20
2017-09-19T13:29:05.351Z,1.83
2017-09-19T13:34:37.602Z,2.60
2017-09-19T13:37:05.243Z,2.67
2017-09-19T13:39:32.818Z,1.90
2017-09-19T13:42:00.393Z,2.20
2017-09-19T13:44:27.993Z,2.10
2017-09-19T13:46:55.578Z,2.20
2017-09-19T13:49:23.406Z,2.47
2017-09-19T13:51:51.772Z,2.03
2017-09-19T13:54:20.126Z,1.70
2017-09-19T13:56:50.016Z,2.20
2017-09-19T13:59:18.518Z,1.40
2017-09-19T14:01:46.450Z,2.20
2017-09-19T14:04:14.278Z,2.67
2017-09-19T14:06:42.654Z,2.43
2017-09-19T14:09:10.997Z,2.73
2017-09-19T14:11:38.602Z,2.33
2017-09-19T14:14:06.201Z,2.10
2017-09-19T14:16:33.806Z,1.40
2017-09-19T14:19:02.166Z,1.93
2017-09-19T14:21:29.851Z,2.03
2017-09-19T14:23:58.358Z,1.73
2017-09-19T14:26:25.937Z,2.23
2017-09-19T14:28:53.514Z,2.70
2017-09-19T14:31:21.133Z,2.30
2017-09-19T14:33:48.710Z,1.80
2017-09-19T14:36:16.306Z,1.33
2017-09-19T14:38:43.941Z,2.13
2017-09-19T14:41:11.538Z,8.60
2017-09-19T14:43:39.925Z,3.10
2017-09-19T14:46:07.558Z,2.40
2017-09-19T14:48:35.149Z,2.43
2017-09-19T14:51:02.730Z,5.63
2017-09-19T14:53:30.330Z,3.60
2017-09-19T14:55:58.113Z,2.80
2017-09-19T14:58:26.458Z,3.30
2017-09-19T15:00:54.044Z,2.60
2017-09-19T15:03:22.449Z,2.50
2017-09-19T15:05:50.021Z,2.43
2017-09-19T15:08:17.602Z,3.00
2017-09-19T15:10:45.222Z,2.10
2017-09-19T15:13:12.806Z,2.30
2017-09-19T15:15:40.390Z,2.20
2017-09-19T15:18:08.022Z,2.87
2017-09-19T15:20:35.617Z,2.70
2017-09-19T15:23:03.198Z,2.40
2017-09-19T15:25:31.881Z,1.70
2017-09-19T15:28:00.227Z,1.80
2017-09-19T15:30:28.794Z,1.73
2017-09-19T15:32:57.146Z,1.50
2017-09-19T15:35:24.730Z,1.20
2017-09-19T15:37:52.338Z,1.10
2017-09-19T15:40:20.681Z,1.30
2017-09-19T15:42:48.269Z,1.00
2017-09-19T15:45:16.857Z,1.43
2017-09-19T15:47:45.229Z,1.10
2017-09-19T15:50:13.577Z,1.07
2017-09-19T15:52:41.183Z,2.80
2017-09-19T15:55:08.766Z,3.70
2017-09-19T15:57:36.576Z,3.00
2017-09-19T16:00:04.932Z,2.00
2017-09-19T16:02:32.513Z,1.63
2017-09-19T16:05:00.138Z,1.33
2017-09-19T16:07:27.730Z,2.03
2017-09-19T16:09:56.086Z,4.82
2017-09-19T16:12:23.706Z,3.83
2017-09-19T16:14:51.289Z,5.20
2017-09-19T16:17:19.109Z,6.18
2017-09-19T16:19:47.459Z,4.12
2017-09-19T16:22:15.054Z,6.60
2017-09-19T16:24:42.693Z,6.37
2017-09-19T16:27:11.046Z,4.93
2017-09-19T16:29:38.667Z,3.90
2017-09-19T16:32:06.506Z,4.73
2017-09-19T16:34:34.887Z,3.70
2017-09-19T16:37:02.469Z,4.35
2017-09-19T16:39:30.099Z,4.40
2017-09-19T16:41:57.685Z,2.95
2017-09-19T16:44:25.270Z,3.30
2017-09-19T16:46:52.887Z,2.30
2017-09-19T16:49:20.469Z,2.65
2017-09-19T16:51:48.094Z,2.40
2017-09-19T16:54:16.442Z,2.20
2017-09-19T16:56:44.025Z,2.83
2017-09-19T16:59:12.398Z,3.07
2017-09-19T17:01:40.773Z,3.20
2017-09-19T17:04:09.123Z,2.67
2017-09-19T17:06:36.722Z,3.70
2017-09-19T17:09:05.113Z,3.90
2017-09-19T17:11:32.698Z,3.22
2017-09-19T17:14:00.281Z,3.20
2017-09-19T17:16:27.890Z,2.72
2017-09-19T17:18:55.533Z,3.22
2017-09-19T17:21:23.887Z,4.22
2017-09-19T17:23:51.473Z,5.12
2017-09-19T17:26:19.842Z,4.28
2017-09-19T17:28:48.229Z,4.28
2017-09-19T17:31:16.577Z,5.25
2017-09-19T17:33:44.161Z,6.00
2017-09-19T17:36:12.545Z,5.12
2017-09-19T17:38:40.127Z,4.82
2017-09-19T17:41:07.714Z,5.12
2017-09-19T17:43:35.350Z,6.30
2017-09-19T17:46:02.932Z,6.18
2017-09-19T17:48:30.517Z,8.65
2017-09-19T17:50:58.127Z,8.02
2017-09-19T17:53:25.714Z,9.40
2017-09-19T17:55:53.298Z,9.10
2017-09-19T17:58:21.835Z,6.85
2017-09-19T18:00:49.418Z,7.12
2017-09-19T18:03:17.006Z,7.15
2017-09-19T18:05:45.382Z,6.57
2017-09-19T18:08:13.734Z,6.55
2017-09-19T18:10:41.541Z,6.50
2017-09-19T18:13:09.138Z,6.45
2017-09-19T18:15:36.714Z,5.68
2017-09-19T18:18:05.319Z,4.57
2017-09-19T18:20:33.675Z,4.47
2017-09-19T18:23:01.251Z,4.37
2017-09-19T18:25:29.733Z,4.53
2017-09-19T18:27:58.085Z,4.20
2017-09-19T18:30:25.666Z,4.18
2017-09-19T18:32:54.046Z,4.60
2017-09-19T18:35:22.480Z,4.57
2017-09-19T18:37:50.293Z,4.82
2017-09-19T18:40:18.671Z,5.60
2017-09-19T18:42:47.059Z,5.25
2017-09-19T18:45:14.909Z,5.47
2017-09-19T18:47:43.258Z,6.40
2017-09-19T18:50:10.837Z,5.40
2017-09-19T18:52:38.505Z,5.80
2017-09-19T18:55:06.850Z,4.95
2017-09-19T18:57:34.494Z,4.90
2017-09-19T19:00:02.102Z,4.62
2017-09-19T19:02:30.450Z,5.50
2017-09-19T19:04:58.062Z,4.95
2017-09-19T19:07:25.660Z,6.10
2017-09-19T19:09:53.242Z,5.40
2017-09-19T19:12:21.022Z,5.80
2017-09-19T19:14:49.403Z,5.62
2017-09-19T19:17:17.782Z,7.80
2017-09-19T19:19:46.258Z,10.10
2017-09-19T19:22:14.611Z,9.90
2017-09-19T19:24:42.282Z,9.43
2017-09-19T19:27:10.870Z,9.20
2017-09-19T19:29:39.253Z,10.15
2017-09-19T19:32:07.626Z,7.55
2017-09-19T19:34:35.993Z,3.95
2017-09-19T19:37:03.574Z,4.12
2017-09-19T19:39:31.338Z,6.00
2017-09-19T19:41:59.026Z,5.55
2017-09-19T19:44:26.646Z,7.00
2017-09-19T19:46:55.132Z,4.78
2017-09-19T19:49:23.510Z,7.57
2017-09-19T19:51:51.862Z,4.90
2017-09-19T19:54:19.546Z,6.53
2017-09-19T19:56:47.197Z,7.32
2017-09-19T19:59:15.789Z,7.60
2017-09-19T20:01:44.142Z,7.95
2017-09-19T20:04:11.826Z,9.40
2017-09-19T20:06:40.306Z,10.05
2017-09-19T20:09:08.698Z,8.48
2017-09-19T20:11:36.343Z,10.13
2017-09-19T20:14:04.693Z,9.38
2017-09-19T20:16:33.096Z,8.90
2017-09-19T20:19:01.474Z,8.23
2017-09-19T20:21:29.861Z,9.23
2017-09-19T20:23:57.710Z,9.20
2017-09-19T20:26:26.094Z,9.18
2017-09-19T20:28:54.450Z,9.45
2017-09-19T20:31:22.949Z,8.85
2017-09-19T20:33:51.297Z,8.40
2017-09-19T20:36:18.877Z,9.57
2017-09-19T20:38:46.546Z,9.27
2017-09-19T20:41:14.922Z,9.75
2017-09-19T20:43:43.497Z,8.80
2017-09-19T20:46:11.166Z,9.77
2017-09-19T20:48:39.513Z,9.82
2017-09-19T20:51:07.290Z,9.70
2017-09-19T20:53:34.877Z,10.10
2017-09-19T20:56:02.526Z,10.45
2017-09-19T20:58:30.902Z,8.50
2017-09-19T21:00:59.274Z,7.75
2017-09-19T21:03:33.374Z,9.05
2017-09-19T21:06:06.678Z,10.38
2017-09-19T21:08:40.838Z,9.68
2017-09-19T21:11:14.194Z,8.60
2017-09-19T21:13:48.397Z,5.90
2017-09-19T21:16:22.309Z,6.60
2017-09-19T21:18:56.325Z,9.13
2017-09-19T21:21:24.675Z,8.13
2017-09-19T21:23:52.258Z,5.43
2017-09-19T21:26:20.644Z,5.05
2017-09-19T21:28:48.226Z,4.10
2017-09-19T21:31:15.813Z,6.95
2017-09-19T21:33:43.509Z,6.70
2017-09-19T21:36:11.885Z,7.53
2017-09-19T21:38:40.261Z,7.07
2017-09-19T21:41:08.633Z,7.80
2017-09-19T21:43:37.005Z,6.57
2017-09-19T21:46:04.581Z,5.85
2017-09-19T21:48:32.990Z,6.47
2017-09-19T21:51:00.612Z,7.20
2017-09-19T21:53:28.989Z,6.72
2017-09-19T21:55:57.362Z,7.30
2017-09-19T21:58:25.954Z,7.22
2017-09-19T22:00:54.298Z,7.57
2017-09-19T22:03:21.877Z,7.65
2017-09-19T22:05:49.548Z,7.18
2017-09-19T22:08:17.922Z,6.20
2017-09-19T22:10:46.406Z,7.30
2017-09-19T22:13:14.782Z,7.25
2017-09-19T22:15:43.133Z,8.13
2017-09-19T22:18:12.250Z,8.40
2017-09-19T22:20:40.626Z,7.95
2017-09-19T22:23:09.194Z,7.55
2017-09-19T22:25:36.773Z,7.82
2017-09-19T22:28:05.150Z,7.30
